createdAt,value
2016-08-27T00:04:31.566Z,25.18
2016-08-27T00:09:28.198Z,25.08
2016-08-27T00:14:24.958Z,25.04
2016-08-27T00:19:21.419Z,24.98
2016-08-27T00:24:17.989Z,24.86
2016-08-27T00:29:15.514Z,24.93
2016-08-27T00:34:12.173Z,24.96
2016-08-27T00:39:08.693Z,24.95
2016-08-27T00:44:06.691Z,25.01
2016-08-27T00:49:02.954Z,24.96
2016-08-27T00:53:59.847Z,24.89
2016-08-27T00:58:56.458Z,24.91
2016-08-27T01:03:53.072Z,24.85
2016-08-27T01:08:51.588Z,24.76
2016-08-27T01:13:47.696Z,24.63
2016-08-27T01:18:44.402Z,24.63
2016-08-27T01:23:41.320Z,24.60
2016-08-27T01:28:37.906Z,24.47
2016-08-27T01:33:34.561Z,24.54
2016-08-27T01:38:31.110Z,24.36
2016-08-27T01:43:28.000Z,24.24
2016-08-27T01:48:24.602Z,24.10
2016-08-27T01:53:21.211Z,24.16
2016-08-27T01:58:17.919Z,24.14
2016-08-27T02:03:14.591Z,24.10
2016-08-27T02:08:11.727Z,24.23
2016-08-27T02:13:08.418Z,24.28
2016-08-27T02:18:05.377Z,24.35
2016-08-27T02:23:01.970Z,24.24
2016-08-27T02:27:58.541Z,24.50
2016-08-27T02:32:58.130Z,24.21
2016-08-27T02:37:54.214Z,24.26
2016-08-27T02:42:50.916Z,24.30
2016-08-27T02:47:47.632Z,24.28
2016-08-27T02:52:44.326Z,24.26
2016-08-27T02:57:40.962Z,24.24
2016-08-27T03:02:37.503Z,24.26
2016-08-27T03:07:34.371Z,24.17
2016-08-27T03:12:33.609Z,24.08
2016-08-27T03:17:29.773Z,23.88
2016-08-27T03:22:26.790Z,24.06
2016-08-27T03:27:23.542Z,24.03
2016-08-27T03:32:20.208Z,23.91
2016-08-27T03:37:19.182Z,23.98
2016-08-27T03:42:15.206Z,23.87
2016-08-27T03:47:11.871Z,23.95
2016-08-27T03:52:08.423Z,23.95
2016-08-27T03:57:04.967Z,23.80
2016-08-27T04:02:02.897Z,23.63
2016-08-27T04:06:59.240Z,23.44
2016-08-27T04:11:55.696Z,23.61
2016-08-27T04:16:53.495Z,23.66
2016-08-27T04:21:49.946Z,23.83
2016-08-27T04:26:46.639Z,23.76
2016-08-27T04:31:43.136Z,23.81
2016-08-27T04:36:39.886Z,23.73
2016-08-27T04:41:36.359Z,23.46
2016-08-27T04:46:32.980Z,23.73
2016-08-27T04:51:29.753Z,23.80
2016-08-27T04:56:26.368Z,23.71
2016-08-27T05:01:23.183Z,23.84
2016-08-27T05:06:20.134Z,23.84
2016-08-27T05:11:16.910Z,23.96
2016-08-27T05:16:13.682Z,24.01
2016-08-27T05:21:10.368Z,24.02
2016-08-27T05:26:07.000Z,24.03
2016-08-27T05:31:03.856Z,24.17
2016-08-27T05:36:00.578Z,24.26
2016-08-27T05:40:57.414Z,24.38
2016-08-27T05:45:54.162Z,24.50
2016-08-27T05:50:50.900Z,24.51
2016-08-27T05:55:47.425Z,24.54
2016-08-27T06:00:45.372Z,24.54
2016-08-27T06:05:41.795Z,24.61
2016-08-27T06:10:38.321Z,24.66
2016-08-27T06:15:35.192Z,24.60
2016-08-27T06:20:31.951Z,24.80
2016-08-27T06:25:28.697Z,24.69
2016-08-27T06:30:25.386Z,24.84
2016-08-27T06:35:22.176Z,25.04
2016-08-27T06:40:18.860Z,25.04
2016-08-27T06:45:15.660Z,25.06
2016-08-27T06:50:12.797Z,25.18
2016-08-27T06:55:09.460Z,25.06
2016-08-27T07:00:06.036Z,25.06
2016-08-27T07:05:02.741Z,25.22
2016-08-27T07:09:59.301Z,25.17
2016-08-27T07:14:56.342Z,25.23
2016-08-27T07:19:53.004Z,25.53
2016-08-27T07:24:49.779Z,25.63
2016-08-27T07:29:46.460Z,25.72
2016-08-27T07:34:43.127Z,25.83
2016-08-27T07:39:39.964Z,25.99
2016-08-27T07:44:36.718Z,25.98
2016-08-27T07:49:33.606Z,26.06
2016-08-27T07:54:30.291Z,26.09
2016-08-27T07:59:27.012Z,26.25
2016-08-27T08:04:26.308Z,26.45
2016-08-27T08:09:22.679Z,26.59
2016-08-27T08:14:20.027Z,27.17
2016-08-27T08:19:17.549Z,27.68
2016-08-27T08:24:15.187Z,28.12
2016-08-27T08:29:12.347Z,28.38
2016-08-27T08:34:09.439Z,28.33
2016-08-27T08:39:06.488Z,28.23
2016-08-27T08:44:03.330Z,28.20
2016-08-27T08:49:00.110Z,28.05
2016-08-27T08:53:56.792Z,28.01
2016-08-27T08:58:54.784Z,27.95
2016-08-27T09:03:50.808Z,27.93
2016-08-27T09:08:47.128Z,27.86
2016-08-27T09:13:43.269Z,27.83
2016-08-27T09:18:39.653Z,27.78
2016-08-27T09:23:36.077Z,27.65
2016-08-27T09:28:32.565Z,27.54
2016-08-27T09:33:29.159Z,27.45
2016-08-27T09:38:25.665Z,27.36
2016-08-27T09:43:25.178Z,27.30
2016-08-27T09:48:21.448Z,27.33
2016-08-27T09:53:20.492Z,27.12
2016-08-27T09:58:16.514Z,27.18
2016-08-27T10:03:13.084Z,27.17
2016-08-27T10:08:10.068Z,27.18
2016-08-27T10:13:06.647Z,27.03
2016-08-27T10:18:03.268Z,27.03
2016-08-27T10:23:01.060Z,27.07
2016-08-27T10:27:57.600Z,27.07
2016-08-27T10:32:54.357Z,27.08
2016-08-27T10:37:51.067Z,27.08
2016-08-27T10:42:47.869Z,27.05
2016-08-27T10:47:44.964Z,27.02
2016-08-27T10:52:41.617Z,26.80
2016-08-27T10:57:38.330Z,26.85
2016-08-27T11:02:35.017Z,26.97
2016-08-27T11:07:31.815Z,26.78
2016-08-27T11:12:28.545Z,26.75
2016-08-27T11:17:25.355Z,26.93
2016-08-27T11:22:22.100Z,27.02
2016-08-27T11:27:18.688Z,27.21
2016-08-27T11:32:15.379Z,27.26
2016-08-27T11:37:14.478Z,27.25
2016-08-27T11:42:10.748Z,27.36
2016-08-27T11:47:08.532Z,27.21
2016-08-27T11:52:05.366Z,27.22
2016-08-27T11:57:02.161Z,27.21
2016-08-27T12:01:59.036Z,27.35
2016-08-27T12:06:55.769Z,27.40
2016-08-27T12:11:54.063Z,27.42
2016-08-27T12:16:50.890Z,27.39
2016-08-27T12:21:47.590Z,27.39
2016-08-27T12:26:44.661Z,27.51
2016-08-27T12:31:41.453Z,27.60
2016-08-27T12:36:38.150Z,27.67
2016-08-27T12:41:37.321Z,27.63
2016-08-27T12:46:33.356Z,27.64
2016-08-27T12:51:30.106Z,27.64
2016-08-27T12:56:27.190Z,27.64
2016-08-27T13:01:23.918Z,27.67
2016-08-27T13:06:22.060Z,27.67
2016-08-27T13:11:18.731Z,27.78
2016-08-27T13:16:15.474Z,27.82
2016-08-27T13:21:12.035Z,27.87
2016-08-27T13:26:09.274Z,27.85
2016-08-27T13:31:06.271Z,27.90
2016-08-27T13:36:03.148Z,27.83
2016-08-27T13:40:59.863Z,27.90
2016-08-27T13:45:56.546Z,27.89
2016-08-27T13:50:53.212Z,27.95
2016-08-27T13:55:52.981Z,28.00
2016-08-27T14:00:49.092Z,28.04
2016-08-27T14:05:45.764Z,27.95
2016-08-27T14:10:42.607Z,27.96
2016-08-27T14:15:39.286Z,27.87
2016-08-27T14:20:35.888Z,27.95
2016-08-27T14:25:32.502Z,27.98
2016-08-27T14:30:29.352Z,28.10
2016-08-27T14:35:26.116Z,28.05
2016-08-27T14:40:22.873Z,28.20
2016-08-27T14:45:21.984Z,28.04
2016-08-27T14:50:18.132Z,28.14
2016-08-27T14:55:14.870Z,28.12
2016-08-27T15:00:11.671Z,28.23
2016-08-27T15:05:08.450Z,28.15
2016-08-27T15:10:05.510Z,28.14
2016-08-27T15:15:02.379Z,28.07
2016-08-27T15:20:00.359Z,28.07
2016-08-27T15:24:56.771Z,28.08
2016-08-27T15:29:53.514Z,28.19
2016-08-27T15:34:50.245Z,28.30
2016-08-27T15:39:47.016Z,28.39
2016-08-27T15:44:43.685Z,28.52
2016-08-27T15:49:40.503Z,28.67
2016-08-27T15:54:37.396Z,28.79
2016-08-27T15:59:34.046Z,28.67
2016-08-27T16:04:31.000Z,28.76
2016-08-27T16:09:27.659Z,28.67
2016-08-27T16:14:24.347Z,28.63
2016-08-27T16:19:23.659Z,28.59
2016-08-27T16:24:19.832Z,28.48
2016-08-27T16:29:18.973Z,28.56
2016-08-27T16:34:14.988Z,28.60
2016-08-27T16:39:11.636Z,28.60
2016-08-27T16:44:08.227Z,28.60
2016-08-27T16:49:04.982Z,28.52
2016-08-27T16:54:01.702Z,28.52
2016-08-27T16:58:58.295Z,28.48
2016-08-27T17:03:54.995Z,28.49
2016-08-27T17:08:51.689Z,28.44
2016-08-27T17:13:48.311Z,28.41
2016-08-27T17:18:45.010Z,28.39
2016-08-27T17:23:41.850Z,28.32
2016-08-27T17:28:38.469Z,28.25
2016-08-27T17:33:35.426Z,28.17
2016-08-27T17:38:32.232Z,28.10
2016-08-27T17:43:28.826Z,28.11
2016-08-27T17:48:25.593Z,28.08
2016-08-27T17:53:22.494Z,28.11
2016-08-27T17:58:19.190Z,28.01
2016-08-27T18:03:15.785Z,28.01
2016-08-27T18:08:13.175Z,27.89
2016-08-27T18:13:09.935Z,27.83
2016-08-27T18:18:06.722Z,27.71
2016-08-27T18:23:04.696Z,27.70
2016-08-27T18:28:01.107Z,27.49
2016-08-27T18:32:57.773Z,27.44
2016-08-27T18:37:54.264Z,27.54
2016-08-27T18:42:51.033Z,27.36
2016-08-27T18:47:48.867Z,27.45
2016-08-27T18:52:45.186Z,27.29
2016-08-27T18:57:41.682Z,27.27
2016-08-27T19:02:38.400Z,27.33
2016-08-27T19:07:35.140Z,27.21
2016-08-27T19:12:33.011Z,27.17
2016-08-27T19:17:29.477Z,27.15
2016-08-27T19:22:26.148Z,27.14
2016-08-27T19:27:23.049Z,27.08
2016-08-27T19:32:19.650Z,27.00
2016-08-27T19:37:16.398Z,26.92
2016-08-27T19:42:13.154Z,26.88
2016-08-27T19:47:11.256Z,26.95
2016-08-27T19:52:08.171Z,26.84
2016-08-27T19:57:04.696Z,26.83
2016-08-27T20:02:01.336Z,26.88
2016-08-27T20:06:57.940Z,26.81
2016-08-27T20:11:54.676Z,26.81
2016-08-27T20:16:51.496Z,26.80
2016-08-27T20:21:48.365Z,26.83
2016-08-27T20:26:45.261Z,26.80
2016-08-27T20:31:44.458Z,26.74
2016-08-27T20:36:40.539Z,26.75
2016-08-27T20:41:37.384Z,26.77
2016-08-27T20:46:34.127Z,26.66
2016-08-27T20:51:31.240Z,26.75
2016-08-27T20:56:28.029Z,26.70
2016-08-27T21:01:24.556Z,26.55
2016-08-27T21:06:21.237Z,26.52
2016-08-27T21:11:18.256Z,26.44
2016-08-27T21:16:14.750Z,26.51
2016-08-27T21:21:11.286Z,26.37
2016-08-27T21:26:08.081Z,26.23
2016-08-27T21:31:04.862Z,26.16
2016-08-27T21:36:01.658Z,26.13
2016-08-27T21:40:58.413Z,26.22
2016-08-27T21:45:54.932Z,26.07
2016-08-27T21:50:51.668Z,26.09
2016-08-27T21:55:48.649Z,26.03
2016-08-27T22:00:45.161Z,26.06
2016-08-27T22:05:42.182Z,26.03
2016-08-27T22:10:38.982Z,26.06
2016-08-27T22:15:35.916Z,26.03
2016-08-27T22:20:32.613Z,25.91
2016-08-27T22:25:29.285Z,25.93
2016-08-27T22:30:26.248Z,25.99
2016-08-27T22:35:22.851Z,25.90
2016-08-27T22:40:19.507Z,25.90
2016-08-27T22:45:17.491Z,25.80
2016-08-27T22:50:13.913Z,25.65
2016-08-27T22:55:10.984Z,25.47
2016-08-27T23:00:07.572Z,25.43
2016-08-27T23:05:04.305Z,25.35
2016-08-27T23:10:01.373Z,25.38
2016-08-27T23:14:58.110Z,25.26
2016-08-27T23:19:54.875Z,25.33
2016-08-27T23:24:51.481Z,25.31
2016-08-27T23:29:48.223Z,25.25
2016-08-27T23:34:45.204Z,25.14
2016-08-27T23:39:41.814Z,25.17
2016-08-27T23:44:41.040Z,25.14
2016-08-27T23:49:37.157Z,25.14
2016-08-27T23:54:33.873Z,25.13
2016-08-27T23:59:30.391Z,25.21
